Time,TemperatureF,DewpointF,PressureIn,WindDirection,WindDirectionDegrees,WindSpeedMPH,WindSpeedGustMPH,Humidity,HourlyPrecipIn,Conditions,Clouds,dailyrainin,SoftwareType,DateUTC
2015-04-25 00:00:00,61.1,58.1,29.61,SSW,209,3.5,3.5,90,0.00,RA,,0.00,WeatherDisplay:10.37,2015-04-25 05:00:00,
2015-04-25 00:05:00,61.1,58.1,29.61,SSW,213,2.3,2.3,90,0.00,CLR,,0.00,WeatherDisplay:10.37,2015-04-25 05:05:00,
2015-04-25 00:10:00,61.1,58.1,29.60,SW,214,3.5,3.5,90,0.00,CLR,,0.00,WeatherDisplay:10.37,2015-04-25 05:10:00,
2015-04-25 00:15:00,61.1,58.1,29.61,ESE,112,2.3,2.3,90,0.00,CLR,,0.00,WeatherDisplay:10.37,2015-04-25 05:15:00,
2015-04-25 00:20:00,61.1,58.1,29.61,SW,224,2.3,2.3,90,0.00,CLR,,0.00,WeatherDisplay:10.37,2015-04-25 05:20:00,
2015-04-25 00:25:00,61.1,58.1,29.60,WNW,300,2.3,2.3,90,0.00,CLR,,0.00,WeatherDisplay:10.37,2015-04-25 05:25:00,
2015-04-25 00:30:00,61.0,58.0,29.60,SSW,199,2.3,2.3,90,0.00,CLR,,0.00,WeatherDisplay:10.37,2015-04-25 05:30:00,
2015-04-25 00:35:00,60.9,57.9,29.61,South,174,3.5,3.5,90,0.00,CLR,,0.00,WeatherDisplay:10.37,2015-04-25 05:35:00,
2015-04-25 00:40:00,60.9,57.9,29.61,WSW,237,2.3,2.3,90,0.00,CLR,,0.00,WeatherDisplay:10.37,2015-04-25 05:40:00,
2015-04-25 00:45:00,60.8,57.8,29.61,South,186,2.3,2.3,90,0.00,CLR,,0.00,WeatherDisplay:10.37,2015-04-25 05:45:00,
2015-04-25 00:50:00,60.8,57.8,29.61,South,180,2.3,2.3,90,0.00,CLR,,0.00,WeatherDisplay:10.37,2015-04-25 05:50:00,
2015-04-25 00:55:00,60.8,57.8,29.61,South,190,3.5,3.5,90,0.00,CLR,,0.00,WeatherDisplay:10.37,2015-04-25 05:55:00,
2015-04-25 01:00:00,60.7,57.7,29.60,SSE,166,2.3,2.3,90,0.00,CLR,,0.00,WeatherDisplay:10.37,2015-04-25 06:00:00,
2015-04-25 01:05:00,60.6,57.7,29.60,SSW,204,2.3,2.3,90,0.00,CLR,,0.00,WeatherDisplay:10.37,2015-04-25 06:05:00,
2015-04-25 01:10:00,60.6,57.7,29.61,SW,235,2.3,2.3,90,0.00,CLR,,0.00,WeatherDisplay:10.37,2015-04-25 06:10:00,
2015-04-25 01:15:00,60.6,58.0,29.61,SSW,208,4.6,4.6,91,0.00,CLR,,0.00,WeatherDisplay:10.37,2015-04-25 06:15:00,
2015-04-25 01:20:00,60.6,57.7,29.60,South,173,1.2,1.2,90,0.00,CLR,,0.00,WeatherDisplay:10.37,2015-04-25 06:20:00,
2015-04-25 01:25:00,60.6,58.0,29.61,WSW,240,3.5,3.5,91,0.00,CLR,,0.00,WeatherDisplay:10.37,2015-04-25 06:25:00,
2015-04-25 01:30:00,60.6,58.0,29.60,South,187,3.5,3.5,91,0.00,CLR,,0.00,WeatherDisplay:10.37,2015-04-25 06:30:00,
2015-04-25 01:35:00,60.6,57.7,29.60,South,178,3.5,3.5,90,0.00,CLR,,0.00,WeatherDisplay:10.37,2015-04-25 06:35:00,
2015-04-25 01:40:00,60.6,58.0,29.60,SSW,198,4.6,4.6,91,0.00,CLR,,0.00,WeatherDisplay:10.37,2015-04-25 06:40:00,
2015-04-25 01:45:00,60.6,57.7,29.59,SSW,209,3.5,3.5,90,0.00,CLR,,0.00,WeatherDisplay:10.37,2015-04-25 06:45:00,
2015-04-25 01:50:00,60.6,57.7,29.59,South,184,2.3,2.3,90,0.00,CLR,,0.00,WeatherDisplay:10.37,2015-04-25 06:50:00,
2015-04-25 01:55:00,60.6,57.7,29.59,SW,217,2.3,2.3,90,0.00,CLR,,0.00,WeatherDisplay:10.37,2015-04-25 06:55:00,
2015-04-25 02:00:00,60.6,58.0,29.59,WNW,301,2.3,2.3,91,0.00,CLR,,0.00,WeatherDisplay:10.37,2015-04-25 07:00:00,
2015-04-25 02:05:00,60.6,58.0,29.58,WSW,248,3.5,3.5,91,0.00,CLR,,0.00,WeatherDisplay:10.37,2015-04-25 07:05:00,
2015-04-25 02:10:00,60.6,57.7,29.58,SSW,202,2.3,2.3,90,0.00,CLR,,0.00,WeatherDisplay:10.37,2015-04-25 07:10:00,
2015-04-25 02:18:00,60.6,58.0,29.58,SSW,194,3.5,3.5,91,0.00,CLR,,0.00,WeatherDisplay:10.37,2015-04-25 07:18:00,
2015-04-25 02:23:00,60.7,58.1,29.57,South,181,3.5,3.5,91,0.00,CLR,,0.00,WeatherDisplay:10.37,2015-04-25 07:23:00,
2015-04-25 02:28:00,60.7,57.7,29.57,SW,225,3.5,3.5,90,0.00,CLR,,0.00,WeatherDisplay:10.37,2015-04-25 07:28:00,
2015-04-25 02:33:00,60.7,57.7,29.57,SW,223,4.6,4.6,90,0.00,CLR,,0.00,WeatherDisplay:10.37,2015-04-25 07:33:00,
2015-04-25 02:38:00,60.6,58.0,29.57,SW,216,3.5,3.5,91,0.00,CLR,,0.00,WeatherDisplay:10.37,2015-04-25 07:38:00,
2015-04-25 02:43:00,60.6,58.0,29.57,West,269,3.5,3.5,91,0.00,CLR,,0.00,WeatherDisplay:10.37,2015-04-25 07:43:00,
2015-04-25 02:48:00,60.5,57.9,29.57,SSW,192,3.5,3.5,91,0.00,CLR,,0.00,WeatherDisplay:10.37,2015-04-25 07:48:00,
2015-04-25 02:53:00,60.5,57.9,29.56,SSW,194,3.5,3.5,91,0.00,CLR,,0.00,WeatherDisplay:10.37,2015-04-25 07:53:00,
2015-04-25 02:58:00,60.4,57.8,29.56,South,186,3.5,3.5,91,0.00,CLR,,0.00,WeatherDisplay:10.37,2015-04-25 07:58:00,
2015-04-25 03:03:00,60.3,57.7,29.56,SSW,200,2.3,2.3,91,0.00,CLR,,0.00,WeatherDisplay:10.37,2015-04-25 08:03:00,
2015-04-25 03:08:00,60.2,57.6,29.55,South,185,3.5,3.5,91,0.00,CLR,,0.00,WeatherDisplay:10.37,2015-04-25 08:08:00,
2015-04-25 03:13:00,60.2,57.6,29.55,South,182,3.5,3.5,91,0.00,CLR,,0.00,WeatherDisplay:10.37,2015-04-25 08:13:00,
2015-04-25 03:18:00,60.1,57.5,29.55,South,187,2.3,2.3,91,0.00,CLR,,0.00,WeatherDisplay:10.37,2015-04-25 08:18:00,
2015-04-25 03:23:00,60.1,57.5,29.55,SSW,194,2.3,2.3,91,0.00,CLR,,0.00,WeatherDisplay:10.37,2015-04-25 08:23:00,
2015-04-25 03:28:00,60.1,57.5,29.55,South,180,2.3,2.3,91,0.00,CLR,,0.00,WeatherDisplay:10.37,2015-04-25 08:28:00,
2015-04-25 03:33:00,60.1,57.5,29.55,South,184,1.2,1.4,91,0.00,CLR,,0.00,WeatherDisplay:10.37,2015-04-25 08:33:00,
2015-04-25 03:38:00,60.1,57.5,29.55,South,185,2.3,2.3,91,0.00,CLR,,0.00,WeatherDisplay:10.37,2015-04-25 08:38:00,
2015-04-25 03:43:00,60.1,57.5,29.55,South,173,2.3,2.3,91,0.00,CLR,,0.00,WeatherDisplay:10.37,2015-04-25 08:43:00,
2015-04-25 03:48:00,60.1,57.5,29.55,SW,217,2.3,2.3,91,0.00,CLR,,0.00,WeatherDisplay:10.37,2015-04-25 08:48:00,
2015-04-25 03:53:00,60.1,57.5,29.55,South,189,3.5,3.5,91,0.00,CLR,,0.00,WeatherDisplay:10.37,2015-04-25 08:53:00,
2015-04-25 03:58:00,60.0,57.4,29.55,South,173,2.3,2.3,91,0.00,CLR,,0.00,WeatherDisplay:10.37,2015-04-25 08:58:00,
2015-04-25 04:03:00,59.9,57.3,29.55,South,190,2.3,2.3,91,0.00,CLR,,0.00,WeatherDisplay:10.37,2015-04-25 09:03:00,
2015-04-25 04:08:00,59.8,57.2,29.55,SSE,161,1.2,1.2,91,0.00,CLR,,0.00,WeatherDisplay:10.37,2015-04-25 09:08:00,
2015-04-25 04:13:00,59.7,57.1,29.55,South,187,2.3,2.3,91,0.00,CLR,,0.00,WeatherDisplay:10.37,2015-04-25 09:13:00,
2015-04-25 04:18:00,59.6,57.0,29.55,SSE,147,2.3,0.0,91,0.00,CLR,,0.00,WeatherDisplay:10.37,2015-04-25 09:18:00,
2015-04-25 04:23:00,59.6,57.3,29.56,SSE,164,2.3,2.3,92,0.00,CLR,,0.00,WeatherDisplay:10.37,2015-04-25 09:23:00,
2015-04-25 04:28:00,59.5,57.2,29.56,SSE,156,2.3,2.3,92,0.00,CLR,,0.00,WeatherDisplay:10.37,2015-04-25 09:28:00,
2015-04-25 04:33:00,59.5,57.2,29.56,SE,146,1.2,1.2,92,0.00,CLR,,0.00,WeatherDisplay:10.37,2015-04-25 09:33:00,
2015-04-25 04:38:00,59.6,57.3,29.56,South,175,3.5,3.5,92,0.00,CLR,,0.00,WeatherDisplay:10.37,2015-04-25 09:38:00,
2015-04-25 04:43:00,59.5,57.2,29.56,SSE,164,3.5,3.5,92,0.00,CLR,,0.00,WeatherDisplay:10.37,2015-04-25 09:43:00,
2015-04-25 04:48:00,59.5,57.2,29.55,SSE,155,2.3,2.3,92,0.00,CLR,,0.00,WeatherDisplay:10.37,2015-04-25 09:48:00,
2015-04-25 04:53:00,59.3,56.7,29.55,South,171,1.2,1.2,91,0.00,CLR,,0.00,WeatherDisplay:10.37,2015-04-25 09:53:00,
2015-04-25 04:59:00,59.2,56.9,29.54,SSE,162,2.3,2.3,92,0.00,CLR,,0.00,WeatherDisplay:10.37,2015-04-25 09:59:00,
2015-04-25 05:04:00,59.2,56.9,29.54,SSW,199,3.5,3.5,92,0.00,CLR,,0.00,WeatherDisplay:10.37,2015-04-25 10:04:00,
2015-04-25 05:09:00,59.4,57.1,29.55,South,181,3.5,3.5,92,0.00,CLR,,0.00,WeatherDisplay:10.37,2015-04-25 10:09:00,
2015-04-25 05:14:00,59.4,57.1,29.55,SSE,161,1.2,1.2,92,0.00,CLR,,0.00,WeatherDisplay:10.37,2015-04-25 10:14:00,
2015-04-25 05:19:00,59.4,56.8,29.55,SSE,161,3.5,3.5,91,0.00,CLR,,0.00,WeatherDisplay:10.37,2015-04-25 10:19:00,
2015-04-25 05:24:00,59.5,56.9,29.55,South,181,3.5,3.5,91,0.00,CLR,,0.00,WeatherDisplay:10.37,2015-04-25 10:24:00,
2015-04-25 05:29:00,59.5,56.9,29.55,SSE,159,2.3,2.3,91,0.00,CLR,,0.00,WeatherDisplay:10.37,2015-04-25 10:29:00,
2015-04-25 05:39:00,59.4,56.8,29.56,South,185,4.0,4.0,91,0.00,CLR,,0.00,WeatherDisplay:10.37,2015-04-25 10:39:00,
2015-04-25 05:44:00,59.4,56.8,29.56,SSE,165,2.3,2.3,91,0.00,CLR,,0.00,WeatherDisplay:10.37,2015-04-25 10:44:00,
2015-04-25 05:49:00,59.2,56.6,29.56,South,186,1.2,1.2,91,0.00,CLR,,0.00,WeatherDisplay:10.37,2015-04-25 10:49:00,
2015-04-25 05:54:00,59.2,56.6,29.57,SSE,165,3.5,3.5,91,0.00,CLR,,0.00,WeatherDisplay:10.37,2015-04-25 10:54:00,
2015-04-25 05:59:00,59.1,56.5,29.57,South,183,2.3,2.3,91,0.00,CLR,,0.00,WeatherDisplay:10.37,2015-04-25 10:59:00,
2015-04-25 06:04:00,59.0,56.1,29.57,South,182,1.2,1.2,90,0.00,CLR,,0.00,WeatherDisplay:10.37,2015-04-25 11:04:00,
2015-04-25 06:09:00,58.7,55.8,29.57,South,171,1.2,0.0,90,0.00,CLR,,0.00,WeatherDisplay:10.37,2015-04-25 11:09:00,
2015-04-25 06:14:00,58.6,56.0,29.56,South,188,0.0,0.0,91,0.00,CLR,,0.00,WeatherDisplay:10.37,2015-04-25 11:14:00,
2015-04-25 06:19:00,58.4,55.8,29.57,SSE,161,0.0,0.0,91,0.00,CLR,,0.00,WeatherDisplay:10.37,2015-04-25 11:19:00,
2015-04-25 06:24:00,58.3,55.7,29.57,SSE,153,1.2,1.2,91,0.00,CLR,,0.00,WeatherDisplay:10.37,2015-04-25 11:24:00,
2015-04-25 06:29:00,58.2,55.6,29.57,South,178,1.2,1.2,91,0.00,CLR,,0.00,WeatherDisplay:10.37,2015-04-25 11:29:00,
2015-04-25 06:34:00,58.1,55.5,29.57,SSE,164,2.0,2.0,91,0.00,CLR,,0.00,WeatherDisplay:10.37,2015-04-25 11:34:00,
2015-04-25 06:39:00,58.0,55.4,29.57,South,182,1.2,0.0,91,0.00,CLR,,0.00,WeatherDisplay:10.37,2015-04-25 11:39:00,
2015-04-25 06:44:00,57.9,55.3,29.57,South,187,0.0,0.0,91,0.00,CLR,,0.00,WeatherDisplay:10.37,2015-04-25 11:44:00,
2015-04-25 06:49:00,57.8,55.2,29.58,ENE,59,0.0,0.0,91,0.00,CLR,,0.00,WeatherDisplay:10.37,2015-04-25 11:49:00,
2015-04-25 06:54:00,57.8,55.2,29.58,SSW,195,0.0,0.0,91,0.00,CLR,,0.00,WeatherDisplay:10.37,2015-04-25 11:54:00,
2015-04-25 06:59:00,57.8,55.2,29.58,SSW,192,0.0,0.0,91,0.00,CLR,,0.00,WeatherDisplay:10.37,2015-04-25 11:59:00,
2015-04-25 07:04:00,58.0,55.4,29.59,SSW,192,0.0,0.0,91,0.00,CLR,,0.00,WeatherDisplay:10.37,2015-04-25 12:04:00,
2015-04-25 07:09:00,58.2,55.6,29.59,South,184,0.0,0.0,91,0.00,CLR,,0.00,WeatherDisplay:10.37,2015-04-25 12:09:00,
2015-04-25 07:14:00,58.3,55.7,29.60,SSE,160,0.0,0.0,91,0.00,CLR,,0.00,WeatherDisplay:10.37,2015-04-25 12:14:00,
2015-04-25 07:19:00,58.6,56.0,29.60,South,189,1.2,1.2,91,0.00,CLR,,0.00,WeatherDisplay:10.37,2015-04-25 12:19:00,
2015-04-25 07:24:00,59.2,56.6,29.60,SSW,203,1.2,1.2,91,0.00,CLR,,0.00,WeatherDisplay:10.37,2015-04-25 12:24:00,
2015-04-25 07:29:00,59.8,56.9,29.60,South,185,0.0,0.0,90,0.00,CLR,,0.00,WeatherDisplay:10.37,2015-04-25 12:29:00,
2015-04-25 07:34:00,60.4,56.8,29.60,SSE,161,1.2,1.2,88,0.00,CLR,,0.00,WeatherDisplay:10.37,2015-04-25 12:34:00,
2015-04-25 07:39:00,61.0,57.1,29.60,SSW,193,0.0,0.0,87,0.00,CLR,,0.00,WeatherDisplay:10.37,2015-04-25 12:39:00,
2015-04-25 07:44:00,61.5,57.3,29.60,SSW,192,1.2,1.2,86,0.00,CLR,,0.00,WeatherDisplay:10.37,2015-04-25 12:44:00,
2015-04-25 07:49:00,61.9,57.3,29.61,South,171,1.2,1.2,85,0.00,CLR,,0.00,WeatherDisplay:10.37,2015-04-25 12:49:00,
2015-04-25 07:59:00,62.7,57.8,29.60,South,187,2.3,2.3,84,0.00,CLR,,0.00,WeatherDisplay:10.37,2015-04-25 12:59:00,
2015-04-25 08:04:00,63.1,57.9,29.60,South,191,1.2,1.2,83,0.00,CLR,,0.00,WeatherDisplay:10.37,2015-04-25 13:04:00,
2015-04-25 08:09:00,63.4,57.8,29.61,South,178,3.5,3.5,82,0.00,CLR,,0.00,WeatherDisplay:10.37,2015-04-25 13:09:00,
2015-04-25 08:14:00,63.7,57.8,29.61,South,185,1.2,1.2,81,0.00,CLR,,0.00,WeatherDisplay:10.37,2015-04-25 13:14:00,
2015-04-25 08:19:00,64.0,57.7,29.61,SSW,203,3.5,3.5,80,0.00,CLR,,0.00,WeatherDisplay:10.37,2015-04-25 13:19:00,
2015-04-25 08:24:00,64.5,57.8,29.61,South,176,1.2,1.2,79,0.00,CLR,,0.00,WeatherDisplay:10.37,2015-04-25 13:24:00,
2015-04-25 08:29:00,64.8,58.1,29.61,South,183,1.2,1.2,79,0.00,CLR,,0.00,WeatherDisplay:10.37,2015-04-25 13:29:00,
2015-04-25 08:34:00,65.2,58.2,29.61,SSW,194,3.5,3.5,78,0.00,CLR,,0.00,WeatherDisplay:10.37,2015-04-25 13:34:00,
2015-04-25 08:39:00,65.5,57.7,29.61,South,180,3.5,3.5,76,0.00,CLR,,0.00,WeatherDisplay:10.37,2015-04-25 13:39:00,
2015-04-25 08:44:00,65.8,58.0,29.61,South,178,0.0,0.1,76,0.00,CLR,,0.00,WeatherDisplay:10.37,2015-04-25 13:44:00,
2015-04-25 08:49:00,66.3,57.8,29.61,East,99,2.3,2.3,74,0.00,CLR,,0.00,WeatherDisplay:10.37,2015-04-25 13:49:00,
2015-04-25 08:54:00,66.6,57.7,29.61,South,171,1.2,1.2,73,0.00,CLR,,0.00,WeatherDisplay:10.37,2015-04-25 13:54:00,
2015-04-25 08:59:00,66.7,57.0,29.61,South,178,3.5,3.5,71,0.00,CLR,,0.00,WeatherDisplay:10.37,2015-04-25 13:59:00,
2015-04-25 09:04:00,66.9,56.8,29.60,South,171,4.6,4.6,70,0.00,CLR,,0.00,WeatherDisplay:10.37,2015-04-25 14:04:00,
2015-04-25 09:09:00,67.2,57.1,29.61,South,171,3.5,3.5,70,0.00,CLR,,0.00,WeatherDisplay:10.37,2015-04-25 14:09:00,
2015-04-25 09:14:00,67.7,56.8,29.61,SSE,163,3.5,3.5,68,0.00,CLR,,0.00,WeatherDisplay:10.37,2015-04-25 14:14:00,
2015-04-25 09:19:00,67.9,57.4,29.61,South,170,2.3,2.3,69,0.00,CLR,,0.00,WeatherDisplay:10.37,2015-04-25 14:19:00,
2015-04-25 09:24:00,68.3,57.7,29.61,South,190,2.3,2.3,69,0.00,CLR,,0.00,WeatherDisplay:10.37,2015-04-25 14:24:00,
2015-04-25 09:29:00,69.0,57.6,29.61,South,178,1.2,1.2,67,0.00,CLR,,0.00,WeatherDisplay:10.37,2015-04-25 14:29:00,
2015-04-25 09:34:00,69.5,57.2,29.61,South,186,2.3,2.3,65,0.00,CLR,,0.00,WeatherDisplay:10.37,2015-04-25 14:34:00,
2015-04-25 09:39:00,69.7,57.0,29.61,SSW,204,2.3,2.3,64,0.00,CLR,,0.00,WeatherDisplay:10.37,2015-04-25 14:39:00,
2015-04-25 09:44:00,70.0,56.8,29.61,South,183,2.3,2.3,63,0.00,CLR,,0.00,WeatherDisplay:10.37,2015-04-25 14:44:00,
2015-04-25 09:49:00,70.7,57.0,29.61,South,185,2.0,2.0,62,0.00,CLR,,0.00,WeatherDisplay:10.37,2015-04-25 14:49:00,
2015-04-25 09:54:00,70.7,56.1,29.61,SSW,205,3.5,3.5,60,0.00,CLR,,0.00,WeatherDisplay:10.37,2015-04-25 14:54:00,
2015-04-25 09:59:00,71.0,56.9,29.61,SSW,192,1.2,1.3,61,0.00,CLR,,0.00,WeatherDisplay:10.37,2015-04-25 14:59:00,
2015-04-25 10:04:00,71.1,55.6,29.61,South,187,3.5,3.5,58,0.00,CLR,,0.00,WeatherDisplay:10.37,2015-04-25 15:04:00,
2015-04-25 10:09:00,71.2,55.7,29.61,SSE,164,3.5,3.5,58,0.00,CLR,,0.00,WeatherDisplay:10.37,2015-04-25 15:09:00,
2015-04-25 10:14:00,71.5,55.5,29.61,South,187,3.5,3.5,57,0.00,CLR,,0.00,WeatherDisplay:10.37,2015-04-25 15:14:00,
2015-04-25 10:19:00,71.8,56.2,29.61,South,187,2.3,2.3,58,0.00,CLR,,0.00,WeatherDisplay:10.37,2015-04-25 15:19:00,
2015-04-25 10:24:00,72.5,55.4,29.61,NNE,26,4.6,4.6,55,0.00,CLR,,0.00,WeatherDisplay:10.37,2015-04-25 15:24:00,
2015-04-25 10:29:00,72.6,56.5,29.61,SSW,199,0.0,0.3,57,0.00,CLR,,0.00,WeatherDisplay:10.37,2015-04-25 15:29:00,
2015-04-25 10:35:00,73.1,56.0,29.61,SSE,158,2.3,2.3,55,0.00,CLR,,0.00,WeatherDisplay:10.37,2015-04-25 15:35:00,
2015-04-25 10:40:00,73.7,56.5,29.62,South,190,0.0,0.0,55,0.00,CLR,,0.00,WeatherDisplay:10.37,2015-04-25 15:40:00,
2015-04-25 10:45:00,74.3,55.0,29.62,SSE,161,3.5,3.5,51,0.00,CLR,,0.00,WeatherDisplay:10.37,2015-04-25 15:45:00,
2015-04-25 10:50:00,74.0,54.7,29.62,North,11,1.2,1.2,51,0.00,CLR,,0.00,WeatherDisplay:10.37,2015-04-25 15:50:00,
2015-04-25 10:55:00,74.4,55.1,29.62,SSW,192,2.3,2.3,51,0.00,CLR,,0.00,WeatherDisplay:10.37,2015-04-25 15:55:00,
2015-04-25 11:00:00,74.8,54.4,29.61,South,175,2.3,2.3,49,0.00,CLR,,0.00,WeatherDisplay:10.37,2015-04-25 16:00:00,
2015-04-25 11:05:00,75.0,54.0,29.62,SSE,166,2.3,2.3,48,0.00,CLR,,0.00,WeatherDisplay:10.37,2015-04-25 16:05:00,
2015-04-25 11:10:00,75.2,54.2,29.61,SSE,162,2.3,2.3,48,0.00,CLR,,0.00,WeatherDisplay:10.37,2015-04-25 16:10:00,
2015-04-25 11:15:00,75.7,54.0,29.62,SE,137,2.3,2.3,47,0.00,CLR,,0.00,WeatherDisplay:10.37,2015-04-25 16:15:00,
2015-04-25 11:20:00,75.6,54.5,29.61,SSW,197,3.5,3.5,48,0.00,CLR,,0.00,WeatherDisplay:10.37,2015-04-25 16:20:00,
2015-04-25 11:25:00,75.8,53.5,29.61,North,9,2.3,2.3,46,0.00,CLR,,0.00,WeatherDisplay:10.37,2015-04-25 16:25:00,
2015-04-25 11:30:00,76.0,54.3,29.62,SSE,154,3.5,3.5,47,0.00,CLR,,0.00,WeatherDisplay:10.37,2015-04-25 16:30:00,
2015-04-25 11:35:00,76.1,55.0,29.61,ESE,123,1.2,1.2,48,0.00,CLR,,0.00,WeatherDisplay:10.37,2015-04-25 16:35:00,
2015-04-25 11:40:00,76.2,54.5,29.61,SSW,192,4.6,4.6,47,0.00,CLR,,0.00,WeatherDisplay:10.37,2015-04-25 16:40:00,
2015-04-25 11:45:00,76.5,54.2,29.62,East,79,3.5,3.5,46,0.00,CLR,,0.00,WeatherDisplay:10.37,2015-04-25 16:45:00,
2015-04-25 11:50:00,76.6,53.7,29.61,South,172,3.5,3.5,45,0.00,CLR,,0.00,WeatherDisplay:10.37,2015-04-25 16:50:00,
2015-04-25 11:55:00,77.0,54.6,29.62,SSW,194,3.5,3.5,46,0.00,CLR,,0.00,WeatherDisplay:10.37,2015-04-25 16:55:00,
2015-04-25 12:00:00,77.6,54.0,29.62,South,169,2.3,2.3,44,0.00,CLR,,0.00,WeatherDisplay:10.37,2015-04-25 17:00:00,
2015-04-25 12:05:00,78.2,53.9,29.62,SSE,155,3.5,3.5,43,0.00,CLR,,0.00,WeatherDisplay:10.37,2015-04-25 17:05:00,
2015-04-25 12:10:00,78.6,54.9,29.62,SSW,195,1.2,1.2,44,0.00,CLR,,0.00,WeatherDisplay:10.37,2015-04-25 17:10:00,
2015-04-25 12:15:00,78.8,53.8,29.62,SE,130,3.5,3.5,42,0.00,CLR,,0.00,WeatherDisplay:10.37,2015-04-25 17:15:00,
2015-04-25 12:20:00,78.2,53.9,29.62,SW,217,3.5,3.5,43,0.00,CLR,,0.00,WeatherDisplay:10.37,2015-04-25 17:20:00,
2015-04-25 12:25:00,77.7,50.8,29.61,ESE,116,3.5,3.5,39,0.00,CLR,,0.00,WeatherDisplay:10.37,2015-04-25 17:25:00,
2015-04-25 12:30:00,77.5,51.3,29.61,ENE,78,6.9,6.9,40,0.00,CLR,,0.00,WeatherDisplay:10.37,2015-04-25 17:30:00,
2015-04-25 12:35:00,77.7,52.8,29.61,ESE,120,1.2,1.2,42,0.00,CLR,,0.00,WeatherDisplay:10.37,2015-04-25 17:35:00,
2015-04-25 12:40:00,78.6,54.2,29.61,NE,50,3.5,3.5,43,0.00,CLR,,0.00,WeatherDisplay:10.37,2015-04-25 17:40:00,
2015-04-25 12:45:00,78.8,52.4,29.61,NE,36,2.3,2.3,40,0.00,CLR,,0.00,WeatherDisplay:10.37,2015-04-25 17:45:00,
2015-04-25 12:50:00,79.0,52.6,29.60,NNE,21,2.3,2.3,40,0.00,CLR,,0.00,WeatherDisplay:10.37,2015-04-25 17:50:00,
2015-04-25 12:55:00,79.6,53.8,29.60,South,187,2.3,2.3,41,0.00,CLR,,0.00,WeatherDisplay:10.37,2015-04-25 17:55:00,
2015-04-25 13:00:00,79.8,52.6,29.60,SSE,159,3.5,3.5,39,0.00,CLR,,0.00,WeatherDisplay:10.37,2015-04-25 18:00:00,
2015-04-25 13:05:00,80.1,53.6,29.60,East,90,3.5,3.5,40,0.00,CLR,,0.00,WeatherDisplay:10.37,2015-04-25 18:05:00,
2015-04-25 13:10:00,79.6,52.5,29.60,SE,139,3.5,3.5,39,0.00,CLR,,0.00,WeatherDisplay:10.37,2015-04-25 18:10:00,
2015-04-25 13:15:00,79.6,51.8,29.60,WSW,251,2.3,2.3,38,0.00,CLR,,0.00,WeatherDisplay:10.37,2015-04-25 18:15:00,
2015-04-25 13:25:00,79.2,52.8,29.60,South,187,3.5,3.5,40,0.00,CLR,,0.00,WeatherDisplay:10.37,2015-04-25 18:25:00,
2015-04-25 13:30:00,79.5,52.4,29.60,SE,124,2.3,2.3,39,0.00,CLR,,0.00,WeatherDisplay:10.37,2015-04-25 18:30:00,
2015-04-25 13:35:00,80.1,54.3,29.60,East,88,3.5,3.5,41,0.00,CLR,,0.00,WeatherDisplay:10.37,2015-04-25 18:35:00,
2015-04-25 13:40:00,80.2,52.3,29.60,SSW,196,2.3,2.3,38,0.00,CLR,,0.00,WeatherDisplay:10.37,2015-04-25 18:40:00,
2015-04-25 13:45:00,80.3,53.1,29.60,WNW,296,1.2,0.0,39,0.00,CLR,,0.00,WeatherDisplay:10.37,2015-04-25 18:45:00,
2015-04-25 13:50:00,80.5,53.3,29.60,SE,137,3.5,3.5,39,0.00,CLR,,0.00,WeatherDisplay:10.37,2015-04-25 18:50:00,
2015-04-25 13:55:00,80.4,52.5,29.60,South,171,2.3,2.3,38,0.00,CLR,,0.00,WeatherDisplay:10.37,2015-04-25 18:55:00,
2015-04-25 14:00:00,81.1,52.4,29.60,SSE,152,3.5,3.5,37,0.00,CLR,,0.00,WeatherDisplay:10.37,2015-04-25 19:00:00,
2015-04-25 14:05:00,81.3,51.0,29.60,SSW,204,3.5,3.5,35,0.00,CLR,,0.00,WeatherDisplay:10.37,2015-04-25 19:05:00,
2015-04-25 14:10:00,81.0,51.5,29.59,ENE,67,3.5,3.5,36,0.00,CLR,,0.00,WeatherDisplay:10.37,2015-04-25 19:10:00,
2015-04-25 14:15:00,81.4,52.6,29.59,East,97,4.6,4.6,37,0.00,CLR,,0.00,WeatherDisplay:10.37,2015-04-25 19:15:00,
2015-04-25 14:20:00,81.3,50.2,29.59,South,185,3.5,3.5,34,0.00,CLR,,0.00,WeatherDisplay:10.37,2015-04-25 19:20:00,
2015-04-25 14:25:00,81.6,52.1,29.59,SE,135,3.5,3.5,36,0.00,CLR,,0.00,WeatherDisplay:10.37,2015-04-25 19:25:00,
2015-04-25 14:30:00,82.0,53.2,29.59,NE,43,0.0,0.4,37,0.00,CLR,,0.00,WeatherDisplay:10.37,2015-04-25 19:30:00,
2015-04-25 14:36:00,82.3,51.9,29.59,SE,145,3.5,3.5,35,0.00,CLR,,0.00,WeatherDisplay:10.37,2015-04-25 19:36:00,
2015-04-25 14:41:00,82.2,51.0,29.59,SSE,168,2.3,2.3,34,0.00,CLR,,0.00,WeatherDisplay:10.37,2015-04-25 19:41:00,
2015-04-25 14:46:00,82.3,51.9,29.59,NE,54,1.2,1.2,35,0.00,CLR,,0.00,WeatherDisplay:10.37,2015-04-25 19:46:00,
2015-04-25 14:51:00,82.2,51.0,29.59,SW,234,2.3,2.3,34,0.00,CLR,,0.00,WeatherDisplay:10.37,2015-04-25 19:51:00,
2015-04-25 14:56:00,82.8,50.8,29.59,NE,45,3.5,3.5,33,0.00,CLR,,0.00,WeatherDisplay:10.37,2015-04-25 19:56:00,
2015-04-25 15:01:00,82.9,50.0,29.59,West,271,1.2,1.9,32,0.00,CLR,,0.00,WeatherDisplay:10.37,2015-04-25 20:01:00,
2015-04-25 15:06:00,82.6,50.6,29.58,NE,42,2.3,2.3,33,0.00,CLR,,0.00,WeatherDisplay:10.37,2015-04-25 20:06:00,
2015-04-25 15:11:00,82.2,49.4,29.58,ESE,116,3.5,3.5,32,0.00,CLR,,0.00,WeatherDisplay:10.37,2015-04-25 20:11:00,
2015-04-25 15:16:00,82.1,50.9,29.58,SSE,166,0.0,0.1,34,0.00,CLR,,0.00,WeatherDisplay:10.37,2015-04-25 20:16:00,
2015-04-25 15:21:00,82.8,50.8,29.58,NE,56,3.0,3.0,33,0.00,CLR,,0.00,WeatherDisplay:10.37,2015-04-25 20:21:00,
2015-04-25 15:26:00,82.6,51.4,29.58,ESE,109,1.2,1.2,34,0.00,CLR,,0.00,WeatherDisplay:10.37,2015-04-25 20:26:00,
2015-04-25 15:31:00,82.7,51.5,29.58,North,10,2.3,2.3,34,0.00,CLR,,0.00,WeatherDisplay:10.37,2015-04-25 20:31:00,
2015-04-25 15:36:00,82.9,51.6,29.58,North,357,2.3,2.3,34,0.00,CLR,,0.00,WeatherDisplay:10.37,2015-04-25 20:36:00,
2015-04-25 15:41:00,83.1,50.2,29.58,South,175,4.6,4.6,32,0.00,CLR,,0.00,WeatherDisplay:10.37,2015-04-25 20:41:00,
2015-04-25 15:46:00,82.9,51.6,29.58,South,175,3.5,3.5,34,0.00,CLR,,0.00,WeatherDisplay:10.37,2015-04-25 20:46:00,
2015-04-25 15:51:00,83.0,50.9,29.58,SSW,204,2.3,2.3,33,0.00,CLR,,0.00,WeatherDisplay:10.37,2015-04-25 20:51:00,
2015-04-25 15:56:00,83.3,51.2,29.58,South,174,2.3,2.3,33,0.00,CLR,,0.00,WeatherDisplay:10.37,2015-04-25 20:56:00,
2015-04-25 16:01:00,83.5,50.5,29.58,South,169,3.5,3.5,32,0.00,CLR,,0.00,WeatherDisplay:10.37,2015-04-25 21:01:00,
2015-04-25 16:06:00,83.1,51.0,29.57,NNW,337,1.2,1.2,33,0.00,CLR,,0.00,WeatherDisplay:10.37,2015-04-25 21:06:00,
2015-04-25 16:11:00,83.3,50.4,29.58,ESE,112,1.2,1.2,32,0.00,CLR,,0.00,WeatherDisplay:10.37,2015-04-25 21:11:00,
2015-04-25 16:16:00,83.7,49.9,29.57,SSE,154,2.3,2.3,31,0.00,CLR,,0.00,WeatherDisplay:10.37,2015-04-25 21:16:00,
2015-04-25 16:21:00,84.1,49.3,29.57,SSE,159,1.2,1.2,30,0.00,CLR,,0.00,WeatherDisplay:10.37,2015-04-25 21:21:00,
2015-04-25 16:26:00,83.8,47.2,29.57,South,178,3.5,3.5,28,0.00,CLR,,0.00,WeatherDisplay:10.37,2015-04-25 21:26:00,
2015-04-25 16:31:00,83.8,49.1,29.57,SSW,199,3.5,3.5,30,0.00,CLR,,0.00,WeatherDisplay:10.37,2015-04-25 21:31:00,
2015-04-25 16:36:00,83.9,49.1,29.58,SE,142,3.5,3.5,30,0.00,CLR,,0.00,WeatherDisplay:10.37,2015-04-25 21:36:00,
2015-04-25 16:41:00,83.6,48.9,29.57,South,180,2.0,2.0,30,0.00,CLR,,0.00,WeatherDisplay:10.37,2015-04-25 21:41:00,
2015-04-25 16:46:00,83.5,48.8,29.57,ESE,107,1.2,0.0,30,0.00,CLR,,0.00,WeatherDisplay:10.37,2015-04-25 21:46:00,
2015-04-25 16:51:00,83.3,48.6,29.57,South,178,2.3,2.3,30,0.00,CLR,,0.00,WeatherDisplay:10.37,2015-04-25 21:51:00,